sensor_id;sensor_type;location;lat;lon;timestamp;P1;durP1;ratioP1;P2;durP2;ratioP2
37087;SDS011;23002;52.676;6.432;2023-04-25T00:01:08;14.55;;;2.60;;
37087;SDS011;23002;52.676;6.432;2023-04-25T00:03:35;8.15;;;2.30;;
37087;SDS011;23002;52.676;6.432;2023-04-25T00:06:02;8.40;;;2.30;;
37087;SDS011;23002;52.676;6.432;2023-04-25T00:08:29;17.30;;;2.40;;
37087;SDS011;23002;52.676;6.432;2023-04-25T00:10:56;11.80;;;2.63;;
37087;SDS011;23002;52.676;6.432;2023-04-25T00:13:24;15.05;;;2.42;;
37087;SDS011;23002;52.676;6.432;2023-04-25T00:15:51;11.77;;;2.33;;
37087;SDS011;23002;52.676;6.432;2023-04-25T00:18:22;13.57;;;3.30;;
37087;SDS011;23002;52.676;6.432;2023-04-25T00:20:49;13.05;;;2.33;;
37087;SDS011;23002;52.676;6.432;2023-04-25T00:23:16;11.70;;;2.67;;
37087;SDS011;23002;52.676;6.432;2023-04-25T00:25:44;12.50;;;2.25;;
37087;SDS011;23002;52.676;6.432;2023-04-25T00:28:12;6.40;;;2.53;;
37087;SDS011;23002;52.676;6.432;2023-04-25T00:30:39;7.40;;;2.03;;
37087;SDS011;23002;52.676;6.432;2023-04-25T00:33:07;10.35;;;2.97;;
37087;SDS011;23002;52.676;6.432;2023-04-25T00:35:34;9.45;;;2.78;;
37087;SDS011;23002;52.676;6.432;2023-04-25T00:38:02;10.93;;;2.35;;
37087;SDS011;23002;52.676;6.432;2023-04-25T00:40:29;17.20;;;2.60;;
37087;SDS011;23002;52.676;6.432;2023-04-25T00:42:56;6.95;;;3.03;;
37087;SDS011;23002;52.676;6.432;2023-04-25T00:45:23;5.93;;;2.38;;
37087;SDS011;23002;52.676;6.432;2023-04-25T00:47:54;12.43;;;3.28;;
37087;SDS011;23002;52.676;6.432;2023-04-25T00:50:21;9.63;;;2.38;;
37087;SDS011;23002;52.676;6.432;2023-04-25T00:52:48;8.50;;;2.72;;
37087;SDS011;23002;52.676;6.432;2023-04-25T00:55:15;5.18;;;1.73;;
37087;SDS011;23002;52.676;6.432;2023-04-25T00:57:43;17.55;;;2.60;;
37087;SDS011;23002;52.676;6.432;2023-04-25T01:00:10;7.28;;;2.17;;
37087;SDS011;23002;52.676;6.432;2023-04-25T01:02:37;13.35;;;2.35;;
37087;SDS011;23002;52.676;6.432;2023-04-25T01:05:04;6.88;;;2.60;;
37087;SDS011;23002;52.676;6.432;2023-04-25T01:07:31;5.80;;;2.15;;
37087;SDS011;23002;52.676;6.432;2023-04-25T01:09:59;9.15;;;2.78;;
37087;SDS011;23002;52.676;6.432;2023-04-25T01:12:26;7.78;;;2.45;;
37087;SDS011;23002;52.676;6.432;2023-04-25T01:14:53;10.25;;;3.05;;
37087;SDS011;23002;52.676;6.432;2023-04-25T01:17:20;8.07;;;2.10;;
37087;SDS011;23002;52.676;6.432;2023-04-25T01:19:47;10.80;;;3.08;;
37087;SDS011;23002;52.676;6.432;2023-04-25T01:22:15;12.55;;;2.92;;
37087;SDS011;23002;52.676;6.432;2023-04-25T01:24:43;6.15;;;2.25;;
37087;SDS011;23002;52.676;6.432;2023-04-25T01:27:10;10.35;;;2.83;;
37087;SDS011;23002;52.676;6.432;2023-04-25T01:29:37;7.20;;;2.08;;
37087;SDS011;23002;52.676;6.432;2023-04-25T01:32:05;12.65;;;2.55;;
37087;SDS011;23002;52.676;6.432;2023-04-25T01:34:32;10.18;;;3.42;;
37087;SDS011;23002;52.676;6.432;2023-04-25T01:37:00;13.65;;;2.40;;
37087;SDS011;23002;52.676;6.432;2023-04-25T01:39:27;5.70;;;2.05;;
37087;SDS011;23002;52.676;6.432;2023-04-25T01:41:55;13.13;;;1.98;;
37087;SDS011;23002;52.676;6.432;2023-04-25T01:44:22;5.30;;;1.98;;
37087;SDS011;23002;52.676;6.432;2023-04-25T01:46:49;10.00;;;3.05;;
37087;SDS011;23002;52.676;6.432;2023-04-25T01:49:17;6.40;;;2.15;;
37087;SDS011;23002;52.676;6.432;2023-04-25T01:51:44;10.77;;;2.65;;
37087;SDS011;23002;52.676;6.432;2023-04-25T01:54:11;4.82;;;2.33;;
37087;SDS011;23002;52.676;6.432;2023-04-25T01:56:39;10.95;;;2.50;;
37087;SDS011;23002;52.676;6.432;2023-04-25T01:59:06;14.02;;;2.95;;
37087;SDS011;23002;52.676;6.432;2023-04-25T02:01:33;8.98;;;2.30;;
37087;SDS011;23002;52.676;6.432;2023-04-25T02:04:00;14.73;;;3.03;;
37087;SDS011;23002;52.676;6.432;2023-04-25T02:06:28;9.10;;;2.40;;
37087;SDS011;23002;52.676;6.432;2023-04-25T02:08:55;12.93;;;2.45;;
37087;SDS011;23002;52.676;6.432;2023-04-25T02:11:22;17.33;;;2.67;;
37087;SDS011;23002;52.676;6.432;2023-04-25T02:13:49;5.55;;;2.30;;
37087;SDS011;23002;52.676;6.432;2023-04-25T02:16:17;10.07;;;2.17;;
37087;SDS011;23002;52.676;6.432;2023-04-25T02:18:45;7.05;;;2.33;;
37087;SDS011;23002;52.676;6.432;2023-04-25T02:21:13;11.63;;;2.58;;
37087;SDS011;23002;52.676;6.432;2023-04-25T02:23:40;9.38;;;2.22;;
37087;SDS011;23002;52.676;6.432;2023-04-25T02:26:07;6.20;;;2.22;;
37087;SDS011;23002;52.676;6.432;2023-04-25T02:28:34;14.75;;;2.53;;
37087;SDS011;23002;52.676;6.432;2023-04-25T02:31:01;10.93;;;2.60;;
37087;SDS011;23002;52.676;6.432;2023-04-25T02:33:28;7.50;;;2.65;;
37087;SDS011;23002;52.676;6.432;2023-04-25T02:35:55;8.30;;;2.10;;
37087;SDS011;23002;52.676;6.432;2023-04-25T02:38:22;15.02;;;3.10;;
37087;SDS011;23002;52.676;6.432;2023-04-25T02:40:49;8.10;;;2.20;;
37087;SDS011;23002;52.676;6.432;2023-04-25T02:43:16;7.47;;;2.65;;
37087;SDS011;23002;52.676;6.432;2023-04-25T02:45:44;8.65;;;2.58;;
37087;SDS011;23002;52.676;6.432;2023-04-25T02:48:11;7.20;;;2.55;;
37087;SDS011;23002;52.676;6.432;2023-04-25T02:50:38;6.75;;;2.80;;
37087;SDS011;23002;52.676;6.432;2023-04-25T02:53:05;6.95;;;2.53;;
37087;SDS011;23002;52.676;6.432;2023-04-25T02:55:32;11.73;;;2.38;;
37087;SDS011;23002;52.676;6.432;2023-04-25T02:57:59;11.65;;;2.97;;
37087;SDS011;23002;52.676;6.432;2023-04-25T03:00:26;5.85;;;2.38;;
37087;SDS011;23002;52.676;6.432;2023-04-25T03:02:53;17.50;;;2.67;;
37087;SDS011;23002;52.676;6.432;2023-04-25T03:05:21;7.85;;;2.28;;
37087;SDS011;23002;52.676;6.432;2023-04-25T03:07:48;14.55;;;2.70;;
37087;SDS011;23002;52.676;6.432;2023-04-25T03:10:15;10.68;;;2.97;;
37087;SDS011;23002;52.676;6.432;2023-04-25T03:12:42;10.60;;;2.42;;
37087;SDS011;23002;52.676;6.432;2023-04-25T03:15:10;12.60;;;2.63;;
37087;SDS011;23002;52.676;6.432;2023-04-25T03:17:37;14.13;;;2.22;;
37087;SDS011;23002;52.676;6.432;2023-04-25T03:20:04;9.77;;;2.38;;
37087;SDS011;23002;52.676;6.432;2023-04-25T03:22:31;7.82;;;2.50;;
37087;SDS011;23002;52.676;6.432;2023-04-25T03:24:58;10.07;;;2.25;;
37087;SDS011;23002;52.676;6.432;2023-04-25T03:27:25;10.30;;;2.63;;
37087;SDS011;23002;52.676;6.432;2023-04-25T03:29:52;8.32;;;1.88;;
37087;SDS011;23002;52.676;6.432;2023-04-25T03:32:19;17.17;;;2.50;;
37087;SDS011;23002;52.676;6.432;2023-04-25T03:34:47;9.07;;;2.85;;
37087;SDS011;23002;52.676;6.432;2023-04-25T03:37:14;5.70;;;2.90;;
37087;SDS011;23002;52.676;6.432;2023-04-25T03:39:41;4.53;;;1.70;;
37087;SDS011;23002;52.676;6.432;2023-04-25T03:42:08;8.65;;;2.28;;
37087;SDS011;23002;52.676;6.432;2023-04-25T03:44:36;9.65;;;2.72;;
37087;SDS011;23002;52.676;6.432;2023-04-25T03:47:03;7.15;;;2.22;;
37087;SDS011;23002;52.676;6.432;2023-04-25T03:49:30;6.55;;;2.30;;
37087;SDS011;23002;52.676;6.432;2023-04-25T03:51:57;12.40;;;1.75;;
37087;SDS011;23002;52.676;6.432;2023-04-25T03:54:24;4.07;;;1.80;;
37087;SDS011;23002;52.676;6.432;2023-04-25T03:56:51;7.88;;;1.80;;
37087;SDS011;23002;52.676;6.432;2023-04-25T03:59:18;15.02;;;3.45;;
37087;SDS011;23002;52.676;6.432;2023-04-25T04:01:45;5.80;;;1.73;;
37087;SDS011;23002;52.676;6.432;2023-04-25T04:04:12;9.00;;;1.67;;
37087;SDS011;23002;52.676;6.432;2023-04-25T04:06:40;7.32;;;1.50;;
37087;SDS011;23002;52.676;6.432;2023-04-25T04:09:08;8.95;;;1.73;;
37087;SDS011;23002;52.676;6.432;2023-04-25T04:11:37;12.15;;;2.35;;
37087;SDS011;23002;52.676;6.432;2023-04-25T04:14:05;5.82;;;1.27;;
37087;SDS011;23002;52.676;6.432;2023-04-25T04:16:32;5.78;;;1.35;;
37087;SDS011;23002;52.676;6.432;2023-04-25T04:19:00;4.53;;;1.52;;
37087;SDS011;23002;52.676;6.432;2023-04-25T04:21:27;7.70;;;1.55;;
37087;SDS011;23002;52.676;6.432;2023-04-25T04:23:54;10.00;;;2.20;;
37087;SDS011;23002;52.676;6.432;2023-04-25T04:26:21;5.53;;;1.10;;
37087;SDS011;23002;52.676;6.432;2023-04-25T04:28:49;10.23;;;1.95;;
37087;SDS011;23002;52.676;6.432;2023-04-25T04:31:18;7.63;;;1.42;;
37087;SDS011;23002;52.676;6.432;2023-04-25T04:33:45;6.93;;;1.20;;
37087;SDS011;23002;52.676;6.432;2023-04-25T04:36:13;9.52;;;1.45;;
37087;SDS011;23002;52.676;6.432;2023-04-25T04:38:40;7.10;;;1.63;;
37087;SDS011;23002;52.676;6.432;2023-04-25T04:41:08;4.47;;;1.27;;
37087;SDS011;23002;52.676;6.432;2023-04-25T04:43:35;3.70;;;1.20;;
37087;SDS011;23002;52.676;6.432;2023-04-25T04:46:02;12.05;;;1.90;;
37087;SDS011;23002;52.676;6.432;2023-04-25T04:48:33;9.30;;;1.38;;
37087;SDS011;23002;52.676;6.432;2023-04-25T04:51:00;7.30;;;1.20;;
37087;SDS011;23002;52.676;6.432;2023-04-25T04:53:27;2.35;;;1.10;;
37087;SDS011;23002;52.676;6.432;2023-04-25T04:55:55;3.63;;;1.20;;
37087;SDS011;23002;52.676;6.432;2023-04-25T04:58:22;6.50;;;1.20;;
37087;SDS011;23002;52.676;6.432;2023-04-25T05:00:49;7.65;;;1.50;;
37087;SDS011;23002;52.676;6.432;2023-04-25T05:03:16;6.53;;;1.40;;
37087;SDS011;23002;52.676;6.432;2023-04-25T05:05:43;4.93;;;1.40;;
37087;SDS011;23002;52.676;6.432;2023-04-25T05:08:11;6.03;;;1.63;;
37087;SDS011;23002;52.676;6.432;2023-04-25T05:10:39;4.60;;;1.10;;
37087;SDS011;23002;52.676;6.432;2023-04-25T05:13:06;3.63;;;1.27;;
37087;SDS011;23002;52.676;6.432;2023-04-25T05:15:33;5.65;;;1.13;;
37087;SDS011;23002;52.676;6.432;2023-04-25T05:18:01;5.10;;;1.02;;
37087;SDS011;23002;52.676;6.432;2023-04-25T05:20:28;5.20;;;1.15;;
37087;SDS011;23002;52.676;6.432;2023-04-25T05:22:56;4.50;;;1.30;;
37087;SDS011;23002;52.676;6.432;2023-04-25T05:25:23;4.95;;;1.77;;
37087;SDS011;23002;52.676;6.432;2023-04-25T05:27:50;7.22;;;1.73;;
37087;SDS011;23002;52.676;6.432;2023-04-25T05:30:18;7.50;;;1.17;;
37087;SDS011;23002;52.676;6.432;2023-04-25T05:32:45;13.20;;;1.20;;
37087;SDS011;23002;52.676;6.432;2023-04-25T05:35:13;5.18;;;1.48;;
37087;SDS011;23002;52.676;6.432;2023-04-25T05:37:40;8.82;;;1.40;;
37087;SDS011;23002;52.676;6.432;2023-04-25T05:40:07;2.75;;;0.93;;
37087;SDS011;23002;52.676;6.432;2023-04-25T05:42:34;2.65;;;0.68;;
37087;SDS011;23002;52.676;6.432;2023-04-25T05:45:02;5.95;;;1.13;;
37087;SDS011;23002;52.676;6.432;2023-04-25T05:47:29;3.88;;;1.50;;
37087;SDS011;23002;52.676;6.432;2023-04-25T05:49:56;5.35;;;1.52;;
37087;SDS011;23002;52.676;6.432;2023-04-25T05:52:23;4.13;;;0.93;;
37087;SDS011;23002;52.676;6.432;2023-04-25T05:54:51;2.78;;;0.70;;
37087;SDS011;23002;52.676;6.432;2023-04-25T05:57:24;4.75;;;0.82;;
37087;SDS011;23002;52.676;6.432;2023-04-25T05:59:52;6.25;;;1.30;;
37087;SDS011;23002;52.676;6.432;2023-04-25T06:02:20;3.25;;;1.30;;
37087;SDS011;23002;52.676;6.432;2023-04-25T06:04:49;4.88;;;0.80;;
37087;SDS011;23002;52.676;6.432;2023-04-25T06:07:17;5.07;;;1.00;;
37087;SDS011;23002;52.676;6.432;2023-04-25T06:09:45;4.43;;;0.95;;
37087;SDS011;23002;52.676;6.432;2023-04-25T06:12:12;6.30;;;1.20;;
37087;SDS011;23002;52.676;6.432;2023-04-25T06:14:39;2.13;;;1.00;;
37087;SDS011;23002;52.676;6.432;2023-04-25T06:17:06;9.82;;;1.58;;
37087;SDS011;23002;52.676;6.432;2023-04-25T06:19:35;3.20;;;1.20;;
37087;SDS011;23002;52.676;6.432;2023-04-25T06:22:02;2.92;;;0.80;;
37087;SDS011;23002;52.676;6.432;2023-04-25T06:24:29;6.18;;;0.93;;
37087;SDS011;23002;52.676;6.432;2023-04-25T06:26:56;3.42;;;1.08;;
37087;SDS011;23002;52.676;6.432;2023-04-25T06:29:24;5.47;;;0.70;;
37087;SDS011;23002;52.676;6.432;2023-04-25T06:31:51;5.07;;;1.10;;
37087;SDS011;23002;52.676;6.432;2023-04-25T06:34:18;2.38;;;0.60;;
37087;SDS011;23002;52.676;6.432;2023-04-25T06:36:45;2.25;;;0.75;;
37087;SDS011;23002;52.676;6.432;2023-04-25T06:39:12;3.58;;;0.90;;
37087;SDS011;23002;52.676;6.432;2023-04-25T06:41:39;4.30;;;1.08;;
37087;SDS011;23002;52.676;6.432;2023-04-25T06:44:06;4.80;;;0.80;;
37087;SDS011;23002;52.676;6.432;2023-04-25T06:46:34;4.63;;;1.15;;
37087;SDS011;23002;52.676;6.432;2023-04-25T06:49:01;3.10;;;0.68;;
37087;SDS011;23002;52.676;6.432;2023-04-25T06:51:28;2.08;;;0.70;;
37087;SDS011;23002;52.676;6.432;2023-04-25T06:53:56;1.27;;;0.57;;
37087;SDS011;23002;52.676;6.432;2023-04-25T06:56:24;6.72;;;0.63;;
37087;SDS011;23002;52.676;6.432;2023-04-25T06:58:51;1.83;;;0.85;;
37087;SDS011;23002;52.676;6.432;2023-04-25T07:01:18;3.58;;;0.60;;
37087;SDS011;23002;52.676;6.432;2023-04-25T07:03:45;2.85;;;0.77;;
37087;SDS011;23002;52.676;6.432;2023-04-25T07:06:13;1.25;;;0.40;;
37087;SDS011;23002;52.676;6.432;2023-04-25T07:08:40;6.28;;;0.73;;
37087;SDS011;23002;52.676;6.432;2023-04-25T07:11:07;0.98;;;0.50;;
37087;SDS011;23002;52.676;6.432;2023-04-25T07:13:34;3.08;;;0.70;;
37087;SDS011;23002;52.676;6.432;2023-04-25T07:16:02;3.85;;;0.50;;
37087;SDS011;23002;52.676;6.432;2023-04-25T07:18:29;3.90;;;0.70;;
37087;SDS011;23002;52.676;6.432;2023-04-25T07:20:57;0.63;;;0.30;;
37087;SDS011;23002;52.676;6.432;2023-04-25T07:23:24;4.82;;;0.65;;
37087;SDS011;23002;52.676;6.432;2023-04-25T07:25:51;5.20;;;0.70;;
37087;SDS011;23002;52.676;6.432;2023-04-25T07:28:18;1.65;;;0.45;;
37087;SDS011;23002;52.676;6.432;2023-04-25T07:30:45;4.97;;;0.80;;
37087;SDS011;23002;52.676;6.432;2023-04-25T07:33:12;3.70;;;0.50;;
37087;SDS011;23002;52.676;6.432;2023-04-25T07:35:39;4.47;;;1.20;;
37087;SDS011;23002;52.676;6.432;2023-04-25T07:38:06;2.83;;;0.52;;
37087;SDS011;23002;52.676;6.432;2023-04-25T07:40:34;2.88;;;0.82;;
37087;SDS011;23002;52.676;6.432;2023-04-25T07:43:01;5.97;;;0.70;;
37087;SDS011;23002;52.676;6.432;2023-04-25T07:45:28;8.15;;;0.60;;
37087;SDS011;23002;52.676;6.432;2023-04-25T07:47:55;4.65;;;1.00;;
37087;SDS011;23002;52.676;6.432;2023-04-25T07:50:22;2.10;;;0.85;;
37087;SDS011;23002;52.676;6.432;2023-04-25T07:52:50;3.13;;;0.80;;
37087;SDS011;23002;52.676;6.432;2023-04-25T07:55:17;3.80;;;0.90;;
37087;SDS011;23002;52.676;6.432;2023-04-25T07:57:44;1.38;;;0.52;;
37087;SDS011;23002;52.676;6.432;2023-04-25T08:00:11;2.85;;;0.57;;
37087;SDS011;23002;52.676;6.432;2023-04-25T08:02:38;2.63;;;1.17;;
37087;SDS011;23002;52.676;6.432;2023-04-25T08:05:06;5.95;;;0.93;;
37087;SDS011;23002;52.676;6.432;2023-04-25T08:07:34;4.28;;;1.08;;
37087;SDS011;23002;52.676;6.432;2023-04-25T08:10:01;3.38;;;0.90;;
37087;SDS011;23002;52.676;6.432;2023-04-25T08:12:28;7.03;;;0.98;;
37087;SDS011;23002;52.676;6.432;2023-04-25T08:14:56;4.85;;;0.80;;
37087;SDS011;23002;52.676;6.432;2023-04-25T08:17:23;4.00;;;0.77;;
37087;SDS011;23002;52.676;6.432;2023-04-25T08:19:50;3.22;;;0.52;;
37087;SDS011;23002;52.676;6.432;2023-04-25T08:22:17;2.10;;;0.43;;
37087;SDS011;23002;52.676;6.432;2023-04-25T08:24:44;0.90;;;0.45;;
37087;SDS011;23002;52.676;6.432;2023-04-25T08:27:11;2.75;;;0.47;;
37087;SDS011;23002;52.676;6.432;2023-04-25T08:29:38;2.72;;;0.63;;
37087;SDS011;23002;52.676;6.432;2023-04-25T08:32:05;0.57;;;0.35;;
37087;SDS011;23002;52.676;6.432;2023-04-25T08:34:32;0.60;;;0.35;;
37087;SDS011;23002;52.676;6.432;2023-04-25T08:37:00;1.90;;;0.40;;
37087;SDS011;23002;52.676;6.432;2023-04-25T08:39:27;1.90;;;0.30;;
37087;SDS011;23002;52.676;6.432;2023-04-25T08:41:54;0.73;;;0.45;;
37087;SDS011;23002;52.676;6.432;2023-04-25T08:44:21;0.30;;;0.20;;
37087;SDS011;23002;52.676;6.432;2023-04-25T08:46:49;1.20;;;0.45;;
37087;SDS011;23002;52.676;6.432;2023-04-25T08:49:16;1.83;;;0.30;;
37087;SDS011;23002;52.676;6.432;2023-04-25T08:51:45;2.15;;;0.45;;
37087;SDS011;23002;52.676;6.432;2023-04-25T08:54:13;0.60;;;0.30;;
37087;SDS011;23002;52.676;6.432;2023-04-25T08:57:00;2.00;;;0.45;;
37087;SDS011;23002;52.676;6.432;2023-04-25T08:59:28;1.98;;;0.45;;
37087;SDS011;23002;52.676;6.432;2023-04-25T09:01:55;2.33;;;0.80;;
37087;SDS011;23002;52.676;6.432;2023-04-25T09:04:22;4.60;;;0.43;;
37087;SDS011;23002;52.676;6.432;2023-04-25T09:06:50;0.40;;;0.20;;
37087;SDS011;23002;52.676;6.432;2023-04-25T09:09:17;3.80;;;0.30;;
37087;SDS011;23002;52.676;6.432;2023-04-25T09:11:44;0.95;;;0.30;;
37087;SDS011;23002;52.676;6.432;2023-04-25T09:14:15;0.93;;;0.40;;
37087;SDS011;23002;52.676;6.432;2023-04-25T09:19:31;0.98;;;0.30;;
37087;SDS011;23002;52.676;6.432;2023-04-25T09:22:02;2.53;;;0.60;;
37087;SDS011;23002;52.676;6.432;2023-04-25T09:24:30;1.92;;;0.68;;
37087;SDS011;23002;52.676;6.432;2023-04-25T09:26:58;2.28;;;0.70;;
37087;SDS011;23002;52.676;6.432;2023-04-25T09:29:29;7.00;;;0.82;;
37087;SDS011;23002;52.676;6.432;2023-04-25T09:32:16;2.55;;;0.82;;
37087;SDS011;23002;52.676;6.432;2023-04-25T09:34:47;3.38;;;0.75;;
37087;SDS011;23002;52.676;6.432;2023-04-25T09:39:55;0.80;;;0.50;;
37087;SDS011;23002;52.676;6.432;2023-04-25T09:42:24;1.67;;;0.45;;
37087;SDS011;23002;52.676;6.432;2023-04-25T09:44:52;2.30;;;0.50;;
37087;SDS011;23002;52.676;6.432;2023-04-25T09:47:20;2.50;;;0.50;;
37087;SDS011;23002;52.676;6.432;2023-04-25T09:49:51;0.98;;;0.40;;
37087;SDS011;23002;52.676;6.432;2023-04-25T09:52:19;2.80;;;0.40;;
37087;SDS011;23002;52.676;6.432;2023-04-25T09:59:51;3.50;;;0.70;;
37087;SDS011;23002;52.676;6.432;2023-04-25T10:02:19;3.17;;;0.50;;
37087;SDS011;23002;52.676;6.432;2023-04-25T10:04:50;2.50;;;0.40;;
37087;SDS011;23002;52.676;6.432;2023-04-25T10:07:19;3.00;;;0.73;;
37087;SDS011;23002;52.676;6.432;2023-04-25T10:09:47;4.35;;;0.55;;
37087;SDS011;23002;52.676;6.432;2023-04-25T10:12:16;1.42;;;0.35;;
37087;SDS011;23002;52.676;6.432;2023-04-25T10:14:44;2.08;;;0.40;;
37087;SDS011;23002;52.676;6.432;2023-04-25T10:17:11;1.52;;;0.50;;
37087;SDS011;23002;52.676;6.432;2023-04-25T10:19:38;4.78;;;0.63;;
37087;SDS011;23002;52.676;6.432;2023-04-25T10:22:07;3.95;;;1.20;;
37087;SDS011;23002;52.676;6.432;2023-04-25T10:24:35;1.25;;;0.38;;
37087;SDS011;23002;52.676;6.432;2023-04-25T10:27:03;1.45;;;0.43;;
37087;SDS011;23002;52.676;6.432;2023-04-25T10:29:31;1.52;;;0.52;;
37087;SDS011;23002;52.676;6.432;2023-04-25T10:31:58;4.13;;;0.98;;
37087;SDS011;23002;52.676;6.432;2023-04-25T10:34:42;4.00;;;0.80;;
37087;SDS011;23002;52.676;6.432;2023-04-25T10:37:12;2.05;;;0.60;;
37087;SDS011;23002;52.676;6.432;2023-04-25T10:39:40;2.08;;;0.40;;
37087;SDS011;23002;52.676;6.432;2023-04-25T10:42:08;0.98;;;0.45;;
37087;SDS011;23002;52.676;6.432;2023-04-25T10:44:36;0.93;;;0.45;;
37087;SDS011;23002;52.676;6.432;2023-04-25T10:47:05;1.90;;;0.50;;
37087;SDS011;23002;52.676;6.432;2023-04-25T10:49:34;5.20;;;0.60;;
37087;SDS011;23002;52.676;6.432;2023-04-25T10:55:02;2.22;;;0.40;;
37087;SDS011;23002;52.676;6.432;2023-04-25T10:57:39;2.42;;;0.68;;
37087;SDS011;23002;52.676;6.432;2023-04-25T11:00:08;6.35;;;0.98;;
37087;SDS011;23002;52.676;6.432;2023-04-25T11:02:37;4.57;;;0.60;;
37087;SDS011;23002;52.676;6.432;2023-04-25T11:05:05;1.58;;;0.77;;
37087;SDS011;23002;52.676;6.432;2023-04-25T11:07:38;3.17;;;0.77;;
37087;SDS011;23002;52.676;6.432;2023-04-25T11:10:05;13.80;;;5.78;;
37087;SDS011;23002;52.676;6.432;2023-04-25T11:12:33;2.75;;;1.50;;
37087;SDS011;23002;52.676;6.432;2023-04-25T11:15:01;6.15;;;0.90;;
37087;SDS011;23002;52.676;6.432;2023-04-25T11:17:29;3.05;;;0.85;;
37087;SDS011;23002;52.676;6.432;2023-04-25T11:19:56;3.58;;;0.88;;
37087;SDS011;23002;52.676;6.432;2023-04-25T11:22:24;2.47;;;0.60;;
37087;SDS011;23002;52.676;6.432;2023-04-25T11:24:51;3.33;;;0.80;;
37087;SDS011;23002;52.676;6.432;2023-04-25T11:27:18;3.45;;;1.10;;
37087;SDS011;23002;52.676;6.432;2023-04-25T11:29:45;8.70;;;7.70;;
37087;SDS011;23002;52.676;6.432;2023-04-25T11:32:15;3.03;;;1.00;;
37087;SDS011;23002;52.676;6.432;2023-04-25T11:34:44;1.90;;;1.65;;
37087;SDS011;23002;52.676;6.432;2023-04-25T11:37:14;2.80;;;0.40;;
37087;SDS011;23002;52.676;6.432;2023-04-25T11:39:44;5.65;;;0.63;;
37087;SDS011;23002;52.676;6.432;2023-04-25T11:42:12;4.60;;;1.07;;
37087;SDS011;23002;52.676;6.432;2023-04-25T11:44:39;3.40;;;0.55;;
37087;SDS011;23002;52.676;6.432;2023-04-25T11:47:06;2.03;;;0.77;;
37087;SDS011;23002;52.676;6.432;2023-04-25T11:49:34;2.92;;;1.10;;
37087;SDS011;23002;52.676;6.432;2023-04-25T11:52:01;3.72;;;0.60;;
37087;SDS011;23002;52.676;6.432;2023-04-25T11:54:29;3.33;;;0.60;;
37087;SDS011;23002;52.676;6.432;2023-04-25T11:56:56;2.15;;;0.47;;
37087;SDS011;23002;52.676;6.432;2023-04-25T11:59:23;2.28;;;0.40;;
37087;SDS011;23002;52.676;6.432;2023-04-25T12:01:51;6.07;;;1.17;;
37087;SDS011;23002;52.676;6.432;2023-04-25T12:04:22;0.65;;;0.30;;
37087;SDS011;23002;52.676;6.432;2023-04-25T12:06:51;3.50;;;0.73;;
37087;SDS011;23002;52.676;6.432;2023-04-25T12:09:19;4.78;;;0.60;;
37087;SDS011;23002;52.676;6.432;2023-04-25T12:11:56;1.95;;;0.75;;
37087;SDS011;23002;52.676;6.432;2023-04-25T12:14:25;1.02;;;0.43;;
37087;SDS011;23002;52.676;6.432;2023-04-25T12:16:55;1.55;;;0.65;;
37087;SDS011;23002;52.676;6.432;2023-04-25T12:19:23;3.13;;;0.95;;
37087;SDS011;23002;52.676;6.432;2023-04-25T12:21:50;2.78;;;0.52;;
37087;SDS011;23002;52.676;6.432;2023-04-25T12:24:21;4.20;;;0.52;;
37087;SDS011;23002;52.676;6.432;2023-04-25T12:26:51;4.15;;;0.70;;
37087;SDS011;23002;52.676;6.432;2023-04-25T12:29:22;2.60;;;0.63;;
37087;SDS011;23002;52.676;6.432;2023-04-25T12:31:54;4.22;;;0.93;;
37087;SDS011;23002;52.676;6.432;2023-04-25T12:34:22;1.17;;;0.40;;
37087;SDS011;23002;52.676;6.432;2023-04-25T12:36:50;2.58;;;0.68;;
37087;SDS011;23002;52.676;6.432;2023-04-25T12:39:18;1.73;;;0.68;;
37087;SDS011;23002;52.676;6.432;2023-04-25T12:41:48;1.48;;;0.65;;
37087;SDS011;23002;52.676;6.432;2023-04-25T12:44:16;3.55;;;0.80;;
37087;SDS011;23002;52.676;6.432;2023-04-25T12:46:43;4.93;;;0.95;;
37087;SDS011;23002;52.676;6.432;2023-04-25T12:49:11;4.50;;;0.60;;
37087;SDS011;23002;52.676;6.432;2023-04-25T12:51:42;5.40;;;0.70;;
37087;SDS011;23002;52.676;6.432;2023-04-25T12:54:09;1.88;;;0.50;;
37087;SDS011;23002;52.676;6.432;2023-04-25T12:56:36;2.90;;;0.47;;
37087;SDS011;23002;52.676;6.432;2023-04-25T12:59:03;4.05;;;0.60;;
37087;SDS011;23002;52.676;6.432;2023-04-25T13:01:30;2.60;;;0.50;;
37087;SDS011;23002;52.676;6.432;2023-04-25T13:04:01;1.92;;;0.50;;
37087;SDS011;23002;52.676;6.432;2023-04-25T13:06:28;3.88;;;0.95;;
37087;SDS011;23002;52.676;6.432;2023-04-25T13:08:56;1.50;;;0.60;;
37087;SDS011;23002;52.676;6.432;2023-04-25T13:11:24;3.03;;;0.60;;
37087;SDS011;23002;52.676;6.432;2023-04-25T13:13:51;2.72;;;0.90;;
37087;SDS011;23002;52.676;6.432;2023-04-25T13:16:19;2.03;;;0.85;;
37087;SDS011;23002;52.676;6.432;2023-04-25T13:18:47;2.30;;;0.50;;
37087;SDS011;23002;52.676;6.432;2023-04-25T13:21:14;1.60;;;0.63;;
37087;SDS011;23002;52.676;6.432;2023-04-25T13:23:42;3.28;;;0.63;;
37087;SDS011;23002;52.676;6.432;2023-04-25T13:26:10;6.60;;;2.88;;
37087;SDS011;23002;52.676;6.432;2023-04-25T13:28:37;2.47;;;0.93;;
37087;SDS011;23002;52.676;6.432;2023-04-25T13:31:09;2.15;;;0.70;;
37087;SDS011;23002;52.676;6.432;2023-04-25T13:33:36;2.72;;;0.55;;
37087;SDS011;23002;52.676;6.432;2023-04-25T13:36:04;2.67;;;0.77;;
37087;SDS011;23002;52.676;6.432;2023-04-25T13:38:31;10.25;;;1.45;;
37087;SDS011;23002;52.676;6.432;2023-04-25T13:40:58;1.38;;;0.60;;
37087;SDS011;23002;52.676;6.432;2023-04-25T13:43:27;1.30;;;0.80;;
37087;SDS011;23002;52.676;6.432;2023-04-25T13:45:54;6.35;;;0.93;;
37087;SDS011;23002;52.676;6.432;2023-04-25T13:48:21;4.60;;;0.73;;
37087;SDS011;23002;52.676;6.432;2023-04-25T13:50:49;2.47;;;0.68;;
37087;SDS011;23002;52.676;6.432;2023-04-25T13:53:16;3.28;;;0.70;;
37087;SDS011;23002;52.676;6.432;2023-04-25T13:55:43;3.38;;;0.88;;
37087;SDS011;23002;52.676;6.432;2023-04-25T13:58:10;16.58;;;4.32;;
37087;SDS011;23002;52.676;6.432;2023-04-25T14:00:38;18.88;;;6.05;;
37087;SDS011;23002;52.676;6.432;2023-04-25T14:03:07;10.93;;;2.97;;
37087;SDS011;23002;52.676;6.432;2023-04-25T14:05:35;5.32;;;1.77;;
37087;SDS011;23002;52.676;6.432;2023-04-25T14:08:06;12.75;;;3.17;;
37087;SDS011;23002;52.676;6.432;2023-04-25T14:10:34;4.32;;;1.23;;
37087;SDS011;23002;52.676;6.432;2023-04-25T14:13:02;7.97;;;2.35;;
37087;SDS011;23002;52.676;6.432;2023-04-25T14:15:33;8.52;;;3.53;;
37087;SDS011;23002;52.676;6.432;2023-04-25T14:18:00;2.67;;;1.10;;
37087;SDS011;23002;52.676;6.432;2023-04-25T14:20:27;8.23;;;1.05;;
37087;SDS011;23002;52.676;6.432;2023-04-25T14:22:55;1.65;;;0.60;;
37087;SDS011;23002;52.676;6.432;2023-04-25T14:25:24;3.00;;;0.75;;
37087;SDS011;23002;52.676;6.432;2023-04-25T14:27:51;2.17;;;0.40;;
37087;SDS011;23002;52.676;6.432;2023-04-25T14:30:19;1.35;;;0.50;;
37087;SDS011;23002;52.676;6.432;2023-04-25T14:32:47;2.03;;;0.40;;
37087;SDS011;23002;52.676;6.432;2023-04-25T14:35:15;0.43;;;0.40;;
37087;SDS011;23002;52.676;6.432;2023-04-25T14:37:42;2.13;;;0.40;;
37087;SDS011;23002;52.676;6.432;2023-04-25T14:40:09;2.25;;;0.50;;
37087;SDS011;23002;52.676;6.432;2023-04-25T14:42:37;0.80;;;0.45;;
37087;SDS011;23002;52.676;6.432;2023-04-25T14:45:05;3.45;;;0.90;;
37087;SDS011;23002;52.676;6.432;2023-04-25T14:47:33;0.65;;;0.40;;
37087;SDS011;23002;52.676;6.432;2023-04-25T14:50:01;2.15;;;0.77;;
37087;SDS011;23002;52.676;6.432;2023-04-25T14:52:28;2.42;;;0.55;;
37087;SDS011;23002;52.676;6.432;2023-04-25T14:54:55;1.77;;;0.47;;
37087;SDS011;23002;52.676;6.432;2023-04-25T14:57:22;2.35;;;0.57;;
37087;SDS011;23002;52.676;6.432;2023-04-25T14:59:49;3.20;;;0.75;;
37087;SDS011;23002;52.676;6.432;2023-04-25T15:02:17;1.83;;;0.57;;